Weather at Lihue Airport

Public forecast

Using degrees Fahrenheit for public forecast. Weather courtesy of forecast.io.

Current aviation weather report (METAR) for Lihue Airport

Report is more than 2 hours old.

Retrieved 2021/10/25 13:53 UTC (3 hours ago):

PHLI 251353Z AUTO 05013KT 10SM FEW020 SCT048 23/22 A3010

Aviation forecast (TAF) for Lihue Airport

Retrieved 2021/10/25 12:27 UTC (5 hours ago):

TAF PHLI 251125Z 2512/2612 05015KT P6SM VCSH SCT020 BKN040 TEMPO 2512/2516 4SM SHRA BR BKN020 FM252000 05015KT P6SM FEW020 SCT040